createdAt,value
2022-12-04T00:00:23.653Z,0.20
2022-12-04T00:10:45.282Z,0.20
2022-12-04T00:21:10.247Z,0.20
2022-12-04T00:31:32.484Z,0.20
2022-12-04T00:41:56.311Z,0.10
2022-12-04T00:52:18.179Z,0.10
2022-12-04T01:02:41.160Z,0.20
2022-12-04T01:13:03.105Z,0.20
2022-12-04T01:23:26.588Z,0.20
2022-12-04T01:33:49.020Z,0.20
2022-12-04T01:44:19.415Z,0.10
2022-12-04T01:54:45.237Z,0.10
2022-12-04T02:05:11.233Z,0.10
2022-12-04T02:15:39.567Z,0.20
2022-12-04T02:26:17.858Z,0.10
2022-12-04T02:36:46.197Z,0.10
2022-12-04T02:47:13.320Z,0.10
2022-12-04T02:57:42.616Z,0.10
2022-12-04T03:08:09.590Z,0.20
2022-12-04T03:18:37.021Z,0.20
2022-12-04T03:29:01.653Z,0.20
2022-12-04T03:39:31.561Z,0.20
2022-12-04T03:49:58.700Z,0.30
2022-12-04T04:00:23.006Z,0.40
2022-12-04T04:10:45.261Z,0.40
2022-12-04T04:21:26.471Z,0.50
2022-12-04T04:31:53.967Z,0.50
2022-12-04T04:42:22.330Z,0.50
2022-12-04T04:52:48.230Z,0.50
2022-12-04T05:03:11.280Z,0.50
2022-12-04T05:13:33.023Z,0.60
2022-12-04T05:23:55.734Z,0.60
2022-12-04T05:34:17.501Z,0.70
2022-12-04T05:44:40.113Z,0.70
2022-12-04T05:55:01.563Z,0.70
2022-12-04T06:05:24.221Z,0.80
2022-12-04T06:15:46.048Z,0.70
2022-12-04T06:26:09.716Z,0.60
2022-12-04T06:36:31.623Z,0.70
2022-12-04T06:46:55.029Z,0.70
2022-12-04T06:57:16.646Z,0.70
2022-12-04T07:07:42.394Z,0.70
2022-12-04T07:18:03.994Z,0.80
2022-12-04T07:28:27.283Z,0.80
2022-12-04T07:38:49.157Z,0.80
2022-12-04T07:49:14.584Z,0.90
2022-12-04T07:59:38.580Z,0.90
2022-12-04T08:10:04.397Z,1.00
2022-12-04T08:20:26.017Z,1.10
2022-12-04T08:30:48.988Z,1.00
2022-12-04T08:41:14.725Z,1.10
2022-12-04T08:51:38.194Z,1.20
2022-12-04T09:02:04.558Z,1.10
2022-12-04T09:12:28.730Z,1.30
2022-12-04T09:23:04.150Z,1.40
2022-12-04T09:33:28.985Z,1.40
2022-12-04T09:43:57.998Z,1.30
2022-12-04T09:54:22.771Z,1.30
2022-12-04T10:04:44.555Z,1.50
2022-12-04T10:15:19.416Z,1.50
2022-12-04T10:25:41.636Z,1.50
2022-12-04T10:36:05.283Z,1.60
2022-12-04T10:46:44.535Z,1.60
2022-12-04T10:57:14.940Z,1.70
2022-12-04T11:07:45.876Z,1.60
2022-12-04T11:18:19.431Z,1.70
2022-12-04T11:28:45.399Z,1.90
2022-12-04T11:39:19.437Z,1.90
2022-12-04T11:49:43.794Z,1.80
2022-12-04T12:00:13.419Z,2.00
2022-12-04T12:10:44.666Z,1.90
2022-12-04T12:21:17.126Z,1.90
2022-12-04T12:31:54.502Z,1.90
2022-12-04T12:42:22.382Z,1.90
2022-12-04T12:52:48.934Z,2.00
2022-12-04T13:03:27.578Z,2.10
2022-12-04T13:13:53.096Z,2.00
2022-12-04T13:24:43.007Z,2.10
2022-12-04T13:35:14.482Z,2.00
2022-12-04T13:45:37.587Z,2.10
2022-12-04T13:56:07.540Z,2.10
2022-12-04T14:06:37.796Z,2.00
2022-12-04T14:17:00.762Z,2.00
2022-12-04T14:39:40.921Z,2.20
2022-12-04T14:50:15.926Z,2.10
2022-12-04T15:00:39.341Z,2.10
2022-12-04T15:11:18.069Z,2.20
2022-12-04T15:21:43.307Z,2.30
2022-12-04T15:32:09.120Z,2.30
2022-12-04T15:42:33.053Z,2.20
2022-12-04T15:53:00.716Z,2.40
2022-12-04T16:03:27.749Z,2.50
2022-12-04T16:13:51.213Z,2.60
2022-12-04T16:24:14.306Z,2.50
2022-12-04T16:34:35.732Z,2.40
2022-12-04T16:44:59.355Z,2.50
2022-12-04T16:55:25.398Z,2.50
2022-12-04T17:05:48.472Z,2.50
2022-12-04T17:16:12.927Z,2.60
2022-12-04T17:26:37.724Z,2.60
2022-12-04T17:36:59.747Z,2.60
2022-12-04T17:47:22.563Z,2.60
2022-12-04T17:57:44.074Z,2.60
2022-12-04T18:08:07.540Z,2.70
2022-12-04T18:18:30.776Z,2.70
2022-12-04T18:28:55.403Z,2.80
2022-12-04T18:39:21.377Z,2.80
2022-12-04T18:49:44.234Z,2.90
2022-12-04T19:00:07.117Z,2.90
2022-12-04T19:10:30.457Z,2.80
2022-12-04T19:20:52.104Z,2.90
2022-12-04T19:31:19.323Z,2.90
2022-12-04T19:41:41.338Z,3.00
2022-12-04T19:52:04.289Z,3.10
2022-12-04T20:02:25.974Z,3.10
2022-12-04T20:12:48.851Z,3.10
2022-12-04T20:23:10.258Z,3.10
2022-12-04T20:33:33.118Z,3.20
2022-12-04T20:43:54.792Z,3.20
2022-12-04T20:54:20.169Z,3.20
2022-12-04T21:04:41.982Z,3.20
2022-12-04T21:15:23.049Z,3.10
2022-12-04T21:25:44.890Z,3.10
2022-12-04T21:36:10.308Z,3.10
2022-12-04T21:46:31.960Z,3.00
2022-12-04T21:56:55.216Z,3.10
2022-12-04T22:07:17.195Z,3.00
2022-12-04T22:17:41.316Z,3.00
2022-12-04T22:28:03.202Z,2.90
2022-12-04T22:38:26.477Z,2.90
2022-12-04T22:48:48.119Z,2.90
2022-12-04T22:59:10.986Z,3.00
2022-12-04T23:09:32.586Z,2.90
2022-12-04T23:19:56.153Z,2.90
2022-12-04T23:30:21.401Z,3.00
2022-12-04T23:53:22.664Z,2.90
